sensor_id;sensor_type;location;lat;lon;timestamp;P1;durP1;ratioP1;P2;durP2;ratioP2
1062;SDS011;520;50.932;6.962;2022-07-05T00:01:29;4.77;;;3.23;;
1062;SDS011;520;50.932;6.962;2022-07-05T00:03:56;3.83;;;3.53;;
1062;SDS011;520;50.932;6.962;2022-07-05T00:06:23;5.53;;;3.00;;
1062;SDS011;520;50.932;6.962;2022-07-05T00:08:49;3.53;;;3.10;;
1062;SDS011;520;50.932;6.962;2022-07-05T00:11:16;4.80;;;2.97;;
1062;SDS011;520;50.932;6.962;2022-07-05T00:13:43;3.20;;;2.90;;
1062;SDS011;520;50.932;6.962;2022-07-05T00:16:09;2.70;;;2.50;;
1062;SDS011;520;50.932;6.962;2022-07-05T00:18:36;4.30;;;3.30;;
1062;SDS011;520;50.932;6.962;2022-07-05T00:21:03;6.97;;;3.50;;
1062;SDS011;520;50.932;6.962;2022-07-05T00:23:30;3.20;;;2.90;;
1062;SDS011;520;50.932;6.962;2022-07-05T00:25:56;3.80;;;2.90;;
1062;SDS011;520;50.932;6.962;2022-07-05T00:28:23;5.00;;;3.23;;
1062;SDS011;520;50.932;6.962;2022-07-05T00:30:49;3.87;;;2.90;;
1062;SDS011;520;50.932;6.962;2022-07-05T00:33:16;3.60;;;3.30;;
1062;SDS011;520;50.932;6.962;2022-07-05T00:35:43;3.63;;;3.33;;
1062;SDS011;520;50.932;6.962;2022-07-05T00:38:09;5.70;;;3.40;;
1062;SDS011;520;50.932;6.962;2022-07-05T00:40:36;3.63;;;3.27;;
1062;SDS011;520;50.932;6.962;2022-07-05T00:43:03;3.83;;;3.37;;
1062;SDS011;520;50.932;6.962;2022-07-05T00:45:30;3.90;;;3.40;;
1062;SDS011;520;50.932;6.962;2022-07-05T00:47:57;3.40;;;3.10;;
1062;SDS011;520;50.932;6.962;2022-07-05T00:50:24;4.97;;;3.63;;
1062;SDS011;520;50.932;6.962;2022-07-05T00:52:52;3.60;;;3.30;;
1062;SDS011;520;50.932;6.962;2022-07-05T00:55:20;3.63;;;3.33;;
1062;SDS011;520;50.932;6.962;2022-07-05T00:57:48;3.23;;;2.93;;
1062;SDS011;520;50.932;6.962;2022-07-05T01:00:16;4.00;;;3.70;;
1062;SDS011;520;50.932;6.962;2022-07-05T01:02:43;3.37;;;3.07;;
1062;SDS011;520;50.932;6.962;2022-07-05T01:05:09;8.10;;;3.60;;
1062;SDS011;520;50.932;6.962;2022-07-05T01:07:36;2.90;;;2.57;;
1062;SDS011;520;50.932;6.962;2022-07-05T01:10:03;5.03;;;2.77;;
1062;SDS011;520;50.932;6.962;2022-07-05T01:12:30;4.87;;;3.13;;
1062;SDS011;520;50.932;6.962;2022-07-05T01:14:57;4.87;;;3.50;;
1062;SDS011;520;50.932;6.962;2022-07-05T01:17:24;3.37;;;3.10;;
1062;SDS011;520;50.932;6.962;2022-07-05T01:19:51;4.90;;;3.20;;
1062;SDS011;520;50.932;6.962;2022-07-05T01:22:19;3.53;;;3.23;;
1062;SDS011;520;50.932;6.962;2022-07-05T01:24:46;3.30;;;3.00;;
1062;SDS011;520;50.932;6.962;2022-07-05T01:27:14;3.30;;;2.80;;
1062;SDS011;520;50.932;6.962;2022-07-05T01:29:41;5.30;;;3.10;;
1062;SDS011;520;50.932;6.962;2022-07-05T01:32:08;3.27;;;2.60;;
1062;SDS011;520;50.932;6.962;2022-07-05T01:34:39;4.30;;;3.17;;
1062;SDS011;520;50.932;6.962;2022-07-05T01:37:08;3.00;;;2.80;;
1062;SDS011;520;50.932;6.962;2022-07-05T01:39:36;3.10;;;2.90;;
1062;SDS011;520;50.932;6.962;2022-07-05T01:42:03;3.80;;;2.83;;
1062;SDS011;520;50.932;6.962;2022-07-05T01:44:30;3.93;;;2.90;;
1062;SDS011;520;50.932;6.962;2022-07-05T01:46:58;3.10;;;2.90;;
1062;SDS011;520;50.932;6.962;2022-07-05T01:49:30;3.17;;;2.90;;
1062;SDS011;520;50.932;6.962;2022-07-05T01:52:05;3.53;;;2.50;;
1062;SDS011;520;50.932;6.962;2022-07-05T01:54:35;3.93;;;2.67;;
1062;SDS011;520;50.932;6.962;2022-07-05T01:57:03;4.50;;;3.03;;
1062;SDS011;520;50.932;6.962;2022-07-05T01:59:32;3.23;;;2.93;;
1062;SDS011;520;50.932;6.962;2022-07-05T02:02:03;3.70;;;3.00;;
1062;SDS011;520;50.932;6.962;2022-07-05T02:04:30;2.93;;;2.73;;
1062;SDS011;520;50.932;6.962;2022-07-05T02:07:03;2.97;;;2.77;;
1062;SDS011;520;50.932;6.962;2022-07-05T02:09:33;3.13;;;2.83;;
1062;SDS011;520;50.932;6.962;2022-07-05T02:12:03;3.80;;;3.47;;
1062;SDS011;520;50.932;6.962;2022-07-05T02:14:30;2.83;;;2.63;;
1062;SDS011;520;50.932;6.962;2022-07-05T02:16:57;3.40;;;3.10;;
1062;SDS011;520;50.932;6.962;2022-07-05T02:19:24;3.00;;;2.80;;
1062;SDS011;520;50.932;6.962;2022-07-05T02:21:51;2.90;;;2.70;;
1062;SDS011;520;50.932;6.962;2022-07-05T02:24:17;3.07;;;2.77;;
1062;SDS011;520;50.932;6.962;2022-07-05T02:26:45;3.77;;;3.00;;
1062;SDS011;520;50.932;6.962;2022-07-05T02:29:12;5.53;;;3.37;;
1062;SDS011;520;50.932;6.962;2022-07-05T02:31:38;3.50;;;3.20;;
1062;SDS011;520;50.932;6.962;2022-07-05T02:34:05;4.43;;;3.13;;
1062;SDS011;520;50.932;6.962;2022-07-05T02:36:32;3.40;;;3.00;;
1062;SDS011;520;50.932;6.962;2022-07-05T02:38:58;6.27;;;3.10;;
1062;SDS011;520;50.932;6.962;2022-07-05T02:41:25;3.40;;;3.10;;
1062;SDS011;520;50.932;6.962;2022-07-05T02:43:51;4.60;;;3.40;;
1062;SDS011;520;50.932;6.962;2022-07-05T02:46:18;2.77;;;2.57;;
1062;SDS011;520;50.932;6.962;2022-07-05T02:48:45;5.67;;;3.53;;
1062;SDS011;520;50.932;6.962;2022-07-05T02:51:12;3.13;;;2.80;;
1062;SDS011;520;50.932;6.962;2022-07-05T02:53:42;3.03;;;2.70;;
1062;SDS011;520;50.932;6.962;2022-07-05T02:56:09;3.90;;;2.80;;
1062;SDS011;520;50.932;6.962;2022-07-05T02:58:36;3.40;;;3.07;;
1062;SDS011;520;50.932;6.962;2022-07-05T03:01:04;3.97;;;2.93;;
1062;SDS011;520;50.932;6.962;2022-07-05T03:03:31;4.77;;;3.37;;
1062;SDS011;520;50.932;6.962;2022-07-05T03:05:58;5.40;;;3.00;;
1062;SDS011;520;50.932;6.962;2022-07-05T03:08:24;3.30;;;2.70;;
1062;SDS011;520;50.932;6.962;2022-07-05T03:10:51;3.07;;;2.60;;
1062;SDS011;520;50.932;6.962;2022-07-05T03:13:17;3.53;;;3.23;;
1062;SDS011;520;50.932;6.962;2022-07-05T03:15:44;4.27;;;2.40;;
1062;SDS011;520;50.932;6.962;2022-07-05T03:18:11;3.57;;;2.83;;
1062;SDS011;520;50.932;6.962;2022-07-05T03:20:37;4.13;;;2.77;;
1062;SDS011;520;50.932;6.962;2022-07-05T03:23:04;3.70;;;3.40;;
1062;SDS011;520;50.932;6.962;2022-07-05T03:25:31;4.20;;;3.10;;
1062;SDS011;520;50.932;6.962;2022-07-05T03:27:57;4.90;;;3.07;;
1062;SDS011;520;50.932;6.962;2022-07-05T03:30:24;5.90;;;2.83;;
1062;SDS011;520;50.932;6.962;2022-07-05T03:32:51;4.23;;;3.93;;
1062;SDS011;520;50.932;6.962;2022-07-05T03:35:20;5.93;;;3.60;;
1062;SDS011;520;50.932;6.962;2022-07-05T03:37:46;4.00;;;2.70;;
1062;SDS011;520;50.932;6.962;2022-07-05T03:40:13;3.27;;;2.73;;
1062;SDS011;520;50.932;6.962;2022-07-05T03:42:41;2.67;;;2.47;;
1062;SDS011;520;50.932;6.962;2022-07-05T03:45:08;3.03;;;2.73;;
1062;SDS011;520;50.932;6.962;2022-07-05T03:47:35;3.60;;;2.77;;
1062;SDS011;520;50.932;6.962;2022-07-05T03:50:03;2.60;;;2.33;;
1062;SDS011;520;50.932;6.962;2022-07-05T03:52:30;4.87;;;2.57;;
1062;SDS011;520;50.932;6.962;2022-07-05T03:54:56;3.17;;;2.87;;
1062;SDS011;520;50.932;6.962;2022-07-05T03:57:23;6.23;;;3.60;;
1062;SDS011;520;50.932;6.962;2022-07-05T03:59:50;3.47;;;3.20;;
1062;SDS011;520;50.932;6.962;2022-07-05T04:02:16;4.87;;;3.37;;
1062;SDS011;520;50.932;6.962;2022-07-05T04:04:43;6.00;;;3.40;;
1062;SDS011;520;50.932;6.962;2022-07-05T04:07:09;4.60;;;3.30;;
1062;SDS011;520;50.932;6.962;2022-07-05T04:09:37;4.50;;;4.10;;
1062;SDS011;520;50.932;6.962;2022-07-05T04:12:04;6.67;;;3.87;;
1062;SDS011;520;50.932;6.962;2022-07-05T04:14:31;5.87;;;3.70;;
1062;SDS011;520;50.932;6.962;2022-07-05T04:16:58;5.63;;;3.77;;
1062;SDS011;520;50.932;6.962;2022-07-05T04:19:25;4.77;;;4.27;;
1062;SDS011;520;50.932;6.962;2022-07-05T04:21:52;4.80;;;4.40;;
1062;SDS011;520;50.932;6.962;2022-07-05T04:24:18;4.50;;;4.10;;
1062;SDS011;520;50.932;6.962;2022-07-05T04:26:45;5.37;;;4.40;;
1062;SDS011;520;50.932;6.962;2022-07-05T04:29:12;4.63;;;4.23;;
1062;SDS011;520;50.932;6.962;2022-07-05T04:31:38;4.00;;;3.40;;
1062;SDS011;520;50.932;6.962;2022-07-05T04:34:05;5.47;;;3.40;;
1062;SDS011;520;50.932;6.962;2022-07-05T04:36:32;3.83;;;3.27;;
1062;SDS011;520;50.932;6.962;2022-07-05T04:38:59;3.70;;;3.40;;
1062;SDS011;520;50.932;6.962;2022-07-05T04:41:25;6.30;;;4.20;;
1062;SDS011;520;50.932;6.962;2022-07-05T04:43:52;4.10;;;3.23;;
1062;SDS011;520;50.932;6.962;2022-07-05T04:46:19;3.63;;;3.07;;
1062;SDS011;520;50.932;6.962;2022-07-05T04:48:45;7.60;;;5.23;;
1062;SDS011;520;50.932;6.962;2022-07-05T04:51:12;5.00;;;2.90;;
1062;SDS011;520;50.932;6.962;2022-07-05T04:53:39;4.50;;;3.17;;
1062;SDS011;520;50.932;6.962;2022-07-05T04:56:06;4.67;;;3.00;;
1062;SDS011;520;50.932;6.962;2022-07-05T04:58:32;4.50;;;2.83;;
1062;SDS011;520;50.932;6.962;2022-07-05T05:00:59;3.90;;;2.93;;
1062;SDS011;520;50.932;6.962;2022-07-05T05:03:26;2.70;;;2.27;;
1062;SDS011;520;50.932;6.962;2022-07-05T05:05:54;6.07;;;3.50;;
1062;SDS011;520;50.932;6.962;2022-07-05T05:08:20;3.93;;;3.10;;
1062;SDS011;520;50.932;6.962;2022-07-05T05:10:47;3.60;;;3.00;;
1062;SDS011;520;50.932;6.962;2022-07-05T05:13:14;2.70;;;2.40;;
1062;SDS011;520;50.932;6.962;2022-07-05T05:15:40;2.83;;;2.57;;
1062;SDS011;520;50.932;6.962;2022-07-05T05:18:07;2.87;;;2.67;;
1062;SDS011;520;50.932;6.962;2022-07-05T05:20:34;4.63;;;2.90;;
1062;SDS011;520;50.932;6.962;2022-07-05T05:23:05;2.90;;;2.30;;
1062;SDS011;520;50.932;6.962;2022-07-05T05:25:32;4.10;;;2.37;;
1062;SDS011;520;50.932;6.962;2022-07-05T05:28:00;2.70;;;2.50;;
1062;SDS011;520;50.932;6.962;2022-07-05T05:30:28;6.33;;;3.50;;
1062;SDS011;520;50.932;6.962;2022-07-05T05:32:54;5.57;;;3.27;;
1062;SDS011;520;50.932;6.962;2022-07-05T05:35:21;4.97;;;3.50;;
1062;SDS011;520;50.932;6.962;2022-07-05T05:37:50;4.47;;;4.07;;
1062;SDS011;520;50.932;6.962;2022-07-05T05:40:19;4.57;;;3.40;;
1062;SDS011;520;50.932;6.962;2022-07-05T05:42:46;3.70;;;3.40;;
1062;SDS011;520;50.932;6.962;2022-07-05T05:45:13;4.83;;;3.70;;
1062;SDS011;520;50.932;6.962;2022-07-05T05:47:49;6.77;;;3.50;;
1062;SDS011;520;50.932;6.962;2022-07-05T05:50:19;3.77;;;2.77;;
1062;SDS011;520;50.932;6.962;2022-07-05T05:52:47;3.27;;;3.00;;
1062;SDS011;520;50.932;6.962;2022-07-05T05:55:15;3.23;;;2.80;;
1062;SDS011;520;50.932;6.962;2022-07-05T05:57:42;5.10;;;3.10;;
1062;SDS011;520;50.932;6.962;2022-07-05T06:00:09;4.80;;;3.43;;
1062;SDS011;520;50.932;6.962;2022-07-05T06:02:37;6.10;;;3.20;;
1062;SDS011;520;50.932;6.962;2022-07-05T06:05:05;3.10;;;2.70;;
1062;SDS011;520;50.932;6.962;2022-07-05T06:07:42;4.10;;;3.20;;
1062;SDS011;520;50.932;6.962;2022-07-05T06:10:21;5.20;;;2.80;;
1062;SDS011;520;50.932;6.962;2022-07-05T06:12:49;3.40;;;3.00;;
1062;SDS011;520;50.932;6.962;2022-07-05T06:15:17;3.90;;;2.60;;
1062;SDS011;520;50.932;6.962;2022-07-05T06:17:44;5.80;;;3.70;;
1062;SDS011;520;50.932;6.962;2022-07-05T06:20:13;3.07;;;2.50;;
1062;SDS011;520;50.932;6.962;2022-07-05T06:22:42;6.67;;;2.73;;
1062;SDS011;520;50.932;6.962;2022-07-05T06:25:09;3.97;;;2.50;;
1062;SDS011;520;50.932;6.962;2022-07-05T06:27:52;2.63;;;2.43;;
1062;SDS011;520;50.932;6.962;2022-07-05T06:30:21;3.70;;;2.80;;
1062;SDS011;520;50.932;6.962;2022-07-05T06:32:50;5.70;;;2.30;;
1062;SDS011;520;50.932;6.962;2022-07-05T06:35:17;3.03;;;1.90;;
1062;SDS011;520;50.932;6.962;2022-07-05T06:37:45;2.50;;;2.23;;
1062;SDS011;520;50.932;6.962;2022-07-05T06:40:21;2.77;;;2.30;;
1062;SDS011;520;50.932;6.962;2022-07-05T06:42:50;3.10;;;2.03;;
1062;SDS011;520;50.932;6.962;2022-07-05T06:45:18;2.33;;;2.07;;
1062;SDS011;520;50.932;6.962;2022-07-05T06:47:45;3.07;;;2.10;;
1062;SDS011;520;50.932;6.962;2022-07-05T06:50:32;3.33;;;2.20;;
1062;SDS011;520;50.932;6.962;2022-07-05T06:53:03;6.53;;;2.47;;
1062;SDS011;520;50.932;6.962;2022-07-05T06:55:30;4.43;;;2.23;;
1062;SDS011;520;50.932;6.962;2022-07-05T06:57:58;5.50;;;2.30;;
1062;SDS011;520;50.932;6.962;2022-07-05T07:00:41;4.23;;;2.53;;
1062;SDS011;520;50.932;6.962;2022-07-05T07:03:28;2.33;;;2.13;;
1062;SDS011;520;50.932;6.962;2022-07-05T07:06:14;3.27;;;2.43;;
1062;SDS011;520;50.932;6.962;2022-07-05T07:08:48;2.73;;;2.30;;
1062;SDS011;520;50.932;6.962;2022-07-05T07:11:32;3.27;;;2.30;;
1062;SDS011;520;50.932;6.962;2022-07-05T07:13:59;2.70;;;2.13;;
1062;SDS011;520;50.932;6.962;2022-07-05T07:16:25;6.77;;;2.50;;
1062;SDS011;520;50.932;6.962;2022-07-05T07:18:52;3.90;;;2.60;;
1062;SDS011;520;50.932;6.962;2022-07-05T07:21:35;3.03;;;2.33;;
1062;SDS011;520;50.932;6.962;2022-07-05T07:24:02;4.13;;;2.30;;
1062;SDS011;520;50.932;6.962;2022-07-05T07:26:29;3.67;;;2.27;;
1062;SDS011;520;50.932;6.962;2022-07-05T07:28:56;7.17;;;3.57;;
1062;SDS011;520;50.932;6.962;2022-07-05T07:31:22;5.17;;;2.40;;
1062;SDS011;520;50.932;6.962;2022-07-05T07:33:49;2.93;;;2.60;;
1062;SDS011;520;50.932;6.962;2022-07-05T07:36:16;3.57;;;3.20;;
1062;SDS011;520;50.932;6.962;2022-07-05T07:38:42;3.20;;;2.90;;
1062;SDS011;520;50.932;6.962;2022-07-05T07:41:11;4.03;;;3.00;;
1062;SDS011;520;50.932;6.962;2022-07-05T07:43:37;5.00;;;3.00;;
1062;SDS011;520;50.932;6.962;2022-07-05T07:46:04;3.30;;;3.03;;
1062;SDS011;520;50.932;6.962;2022-07-05T07:48:31;3.90;;;3.17;;
1062;SDS011;520;50.932;6.962;2022-07-05T07:50:57;8.93;;;3.07;;
1062;SDS011;520;50.932;6.962;2022-07-05T07:53:24;3.53;;;2.53;;
1062;SDS011;520;50.932;6.962;2022-07-05T07:55:51;4.37;;;3.10;;
1062;SDS011;520;50.932;6.962;2022-07-05T07:58:17;5.00;;;3.07;;
1062;SDS011;520;50.932;6.962;2022-07-05T08:00:44;4.77;;;2.90;;
1062;SDS011;520;50.932;6.962;2022-07-05T08:03:11;3.50;;;2.63;;
1062;SDS011;520;50.932;6.962;2022-07-05T08:05:38;5.20;;;3.27;;
1062;SDS011;520;50.932;6.962;2022-07-05T08:08:05;2.97;;;2.77;;
1062;SDS011;520;50.932;6.962;2022-07-05T08:10:32;3.20;;;2.90;;
1062;SDS011;520;50.932;6.962;2022-07-05T08:12:58;4.50;;;2.97;;
1062;SDS011;520;50.932;6.962;2022-07-05T08:15:26;2.70;;;2.50;;
1062;SDS011;520;50.932;6.962;2022-07-05T08:17:53;4.30;;;3.10;;
1062;SDS011;520;50.932;6.962;2022-07-05T08:20:38;3.90;;;2.60;;
1062;SDS011;520;50.932;6.962;2022-07-05T08:23:24;2.40;;;2.20;;
1062;SDS011;520;50.932;6.962;2022-07-05T08:25:56;2.40;;;2.10;;
1062;SDS011;520;50.932;6.962;2022-07-05T08:28:23;2.63;;;2.20;;
1062;SDS011;520;50.932;6.962;2022-07-05T08:30:52;2.80;;;2.40;;
1062;SDS011;520;50.932;6.962;2022-07-05T08:33:19;2.53;;;2.17;;
1062;SDS011;520;50.932;6.962;2022-07-05T08:35:45;3.87;;;2.50;;
1062;SDS011;520;50.932;6.962;2022-07-05T08:38:12;3.03;;;2.83;;
1062;SDS011;520;50.932;6.962;2022-07-05T08:40:39;2.27;;;2.10;;
1062;SDS011;520;50.932;6.962;2022-07-05T08:43:12;2.47;;;2.10;;
1062;SDS011;520;50.932;6.962;2022-07-05T08:45:44;2.10;;;1.90;;
1062;SDS011;520;50.932;6.962;2022-07-05T08:48:11;2.90;;;2.00;;
1062;SDS011;520;50.932;6.962;2022-07-05T08:50:41;1.67;;;1.57;;
1062;SDS011;520;50.932;6.962;2022-07-05T08:53:10;4.40;;;2.10;;
1062;SDS011;520;50.932;6.962;2022-07-05T08:55:36;2.77;;;2.10;;
1062;SDS011;520;50.932;6.962;2022-07-05T08:58:03;3.43;;;2.03;;
1062;SDS011;520;50.932;6.962;2022-07-05T09:00:30;2.33;;;1.93;;
1062;SDS011;520;50.932;6.962;2022-07-05T09:02:56;2.20;;;2.00;;
1062;SDS011;520;50.932;6.962;2022-07-05T09:05:24;2.20;;;1.87;;
1062;SDS011;520;50.932;6.962;2022-07-05T09:07:58;2.50;;;1.70;;
1062;SDS011;520;50.932;6.962;2022-07-05T09:10:27;3.33;;;2.37;;
1062;SDS011;520;50.932;6.962;2022-07-05T09:12:55;3.10;;;2.20;;
1062;SDS011;520;50.932;6.962;2022-07-05T09:15:23;3.50;;;2.00;;
1062;SDS011;520;50.932;6.962;2022-07-05T09:17:50;2.93;;;1.97;;
1062;SDS011;520;50.932;6.962;2022-07-05T09:20:18;2.00;;;1.90;;
1062;SDS011;520;50.932;6.962;2022-07-05T09:22:46;2.53;;;2.30;;
1062;SDS011;520;50.932;6.962;2022-07-05T09:30:27;6.63;;;2.80;;
1062;SDS011;520;50.932;6.962;2022-07-05T09:33:08;3.30;;;2.00;;
1062;SDS011;520;50.932;6.962;2022-07-05T09:35:42;2.67;;;2.47;;
1062;SDS011;520;50.932;6.962;2022-07-05T09:38:21;1.93;;;1.83;;
1062;SDS011;520;50.932;6.962;2022-07-05T09:40:51;6.50;;;3.17;;
1062;SDS011;520;50.932;6.962;2022-07-05T09:43:47;4.60;;;3.27;;
1062;SDS011;520;50.932;6.962;2022-07-05T09:46:13;4.93;;;3.80;;
1062;SDS011;520;50.932;6.962;2022-07-05T09:48:55;2.90;;;2.60;;
1062;SDS011;520;50.932;6.962;2022-07-05T09:51:22;3.23;;;2.33;;
1062;SDS011;520;50.932;6.962;2022-07-05T09:54:08;4.63;;;1.80;;
1062;SDS011;520;50.932;6.962;2022-07-05T09:56:47;28.37;;;6.80;;
1062;SDS011;520;50.932;6.962;2022-07-05T09:59:18;20.23;;;3.70;;
1062;SDS011;520;50.932;6.962;2022-07-05T10:01:47;2.80;;;2.10;;
1062;SDS011;520;50.932;6.962;2022-07-05T10:04:14;3.73;;;2.80;;
1062;SDS011;520;50.932;6.962;2022-07-05T10:06:41;5.80;;;2.50;;
1062;SDS011;520;50.932;6.962;2022-07-05T10:09:09;2.50;;;2.30;;
1062;SDS011;520;50.932;6.962;2022-07-05T10:11:42;2.40;;;2.10;;
1062;SDS011;520;50.932;6.962;2022-07-05T10:14:14;2.27;;;2.07;;
1062;SDS011;520;50.932;6.962;2022-07-05T10:16:45;5.80;;;2.20;;
1062;SDS011;520;50.932;6.962;2022-07-05T10:19:22;1.93;;;1.73;;
1062;SDS011;520;50.932;6.962;2022-07-05T10:21:55;2.03;;;1.80;;
1062;SDS011;520;50.932;6.962;2022-07-05T10:24:42;2.00;;;1.70;;
1062;SDS011;520;50.932;6.962;2022-07-05T10:27:10;3.00;;;2.03;;
1062;SDS011;520;50.932;6.962;2022-07-05T10:29:39;5.63;;;2.13;;
1062;SDS011;520;50.932;6.962;2022-07-05T10:32:07;2.47;;;2.27;;
1062;SDS011;520;50.932;6.962;2022-07-05T10:34:35;2.80;;;2.00;;
1062;SDS011;520;50.932;6.962;2022-07-05T10:37:22;4.07;;;2.10;;
1062;SDS011;520;50.932;6.962;2022-07-05T10:39:52;1.73;;;1.60;;
1062;SDS011;520;50.932;6.962;2022-07-05T10:42:19;2.20;;;2.00;;
1062;SDS011;520;50.932;6.962;2022-07-05T10:44:46;2.40;;;1.53;;
1062;SDS011;520;50.932;6.962;2022-07-05T10:47:12;3.57;;;3.27;;
1062;SDS011;520;50.932;6.962;2022-07-05T10:49:40;2.40;;;2.00;;
1062;SDS011;520;50.932;6.962;2022-07-05T10:52:22;2.17;;;2.07;;
1062;SDS011;520;50.932;6.962;2022-07-05T11:00:46;6.17;;;3.40;;
1062;SDS011;520;50.932;6.962;2022-07-05T11:06:02;2.80;;;2.00;;
1062;SDS011;520;50.932;6.962;2022-07-05T11:09:34;6.97;;;2.27;;
1062;SDS011;520;50.932;6.962;2022-07-05T11:11:30;3.10;;;2.10;;
1062;SDS011;520;50.932;6.962;2022-07-05T11:14:53;3.20;;;1.90;;
1062;SDS011;520;50.932;6.962;2022-07-05T11:22:25;3.63;;;2.10;;
1062;SDS011;520;50.932;6.962;2022-07-05T11:24:52;2.07;;;1.80;;
1062;SDS011;520;50.932;6.962;2022-07-05T11:27:20;4.77;;;1.73;;
1062;SDS011;520;50.932;6.962;2022-07-05T11:29:48;2.60;;;1.87;;
1062;SDS011;520;50.932;6.962;2022-07-05T11:35:12;2.07;;;1.80;;
1062;SDS011;520;50.932;6.962;2022-07-05T11:40:50;1.90;;;1.80;;
1062;SDS011;520;50.932;6.962;2022-07-05T11:43:27;4.13;;;2.23;;
1062;SDS011;520;50.932;6.962;2022-07-05T11:45:55;2.90;;;2.27;;
1062;SDS011;520;50.932;6.962;2022-07-05T11:48:23;2.30;;;1.70;;
1062;SDS011;520;50.932;6.962;2022-07-05T11:50:51;2.60;;;1.97;;
1062;SDS011;520;50.932;6.962;2022-07-05T11:53:26;3.33;;;1.67;;
1062;SDS011;520;50.932;6.962;2022-07-05T11:56:17;3.73;;;2.10;;
1062;SDS011;520;50.932;6.962;2022-07-05T11:58:44;2.07;;;1.53;;
1062;SDS011;520;50.932;6.962;2022-07-05T12:01:11;1.57;;;1.47;;
1062;SDS011;520;50.932;6.962;2022-07-05T12:03:38;2.87;;;1.80;;
1062;SDS011;520;50.932;6.962;2022-07-05T12:06:14;2.73;;;1.80;;
1062;SDS011;520;50.932;6.962;2022-07-05T12:08:43;4.50;;;1.70;;
1062;SDS011;520;50.932;6.962;2022-07-05T12:11:12;2.90;;;1.73;;
1062;SDS011;520;50.932;6.962;2022-07-05T12:13:58;3.10;;;1.63;;
1062;SDS011;520;50.932;6.962;2022-07-05T12:16:24;2.53;;;1.60;;
1062;SDS011;520;50.932;6.962;2022-07-05T12:18:53;1.80;;;1.70;;
1062;SDS011;520;50.932;6.962;2022-07-05T12:21:21;3.40;;;2.23;;
1062;SDS011;520;50.932;6.962;2022-07-05T12:23:49;2.40;;;1.60;;
1062;SDS011;520;50.932;6.962;2022-07-05T12:26:17;1.77;;;1.33;;
1062;SDS011;520;50.932;6.962;2022-07-05T12:28:45;3.37;;;1.40;;
1062;SDS011;520;50.932;6.962;2022-07-05T12:33:45;2.80;;;1.40;;
1062;SDS011;520;50.932;6.962;2022-07-05T12:36:13;2.10;;;1.43;;
1062;SDS011;520;50.932;6.962;2022-07-05T12:38:41;1.73;;;1.60;;
1062;SDS011;520;50.932;6.962;2022-07-05T12:41:08;1.93;;;1.83;;
1062;SDS011;520;50.932;6.962;2022-07-05T12:43:52;2.07;;;1.97;;
1062;SDS011;520;50.932;6.962;2022-07-05T12:46:20;2.80;;;1.87;;
1062;SDS011;520;50.932;6.962;2022-07-05T12:49:07;1.60;;;1.50;;
1062;SDS011;520;50.932;6.962;2022-07-05T12:51:38;1.40;;;1.30;;
1062;SDS011;520;50.932;6.962;2022-07-05T12:57:47;1.77;;;1.60;;
1062;SDS011;520;50.932;6.962;2022-07-05T13:00:30;1.80;;;1.50;;
1062;SDS011;520;50.932;6.962;2022-07-05T13:02:56;3.13;;;1.43;;
1062;SDS011;520;50.932;6.962;2022-07-05T13:05:23;2.87;;;1.70;;
1062;SDS011;520;50.932;6.962;2022-07-05T13:07:52;2.33;;;2.10;;
1062;SDS011;520;50.932;6.962;2022-07-05T13:10:24;2.80;;;2.33;;
1062;SDS011;520;50.932;6.962;2022-07-05T13:12:54;2.00;;;1.50;;
1062;SDS011;520;50.932;6.962;2022-07-05T13:15:21;1.93;;;1.73;;
1062;SDS011;520;50.932;6.962;2022-07-05T13:17:48;3.00;;;1.77;;
1062;SDS011;520;50.932;6.962;2022-07-05T13:20:15;2.30;;;2.10;;
1062;SDS011;520;50.932;6.962;2022-07-05T13:22:44;1.73;;;1.60;;
1062;SDS011;520;50.932;6.962;2022-07-05T13:25:11;3.17;;;2.00;;
1062;SDS011;520;50.932;6.962;2022-07-05T13:27:38;6.53;;;1.80;;
1062;SDS011;520;50.932;6.962;2022-07-05T13:30:07;3.13;;;1.80;;
1062;SDS011;520;50.932;6.962;2022-07-05T13:32:34;2.13;;;1.90;;
1062;SDS011;520;50.932;6.962;2022-07-05T13:35:01;2.20;;;2.00;;
1062;SDS011;520;50.932;6.962;2022-07-05T13:37:29;1.90;;;1.80;;
1062;SDS011;520;50.932;6.962;2022-07-05T13:39:56;2.30;;;2.10;;
1062;SDS011;520;50.932;6.962;2022-07-05T13:42:23;3.87;;;2.03;;
1062;SDS011;520;50.932;6.962;2022-07-05T13:44:49;2.60;;;1.97;;
1062;SDS011;520;50.932;6.962;2022-07-05T13:47:16;2.53;;;1.70;;
1062;SDS011;520;50.932;6.962;2022-07-05T13:49:43;2.73;;;1.97;;
1062;SDS011;520;50.932;6.962;2022-07-05T13:52:10;2.07;;;1.60;;
1062;SDS011;520;50.932;6.962;2022-07-05T13:54:36;3.17;;;1.73;;
1062;SDS011;520;50.932;6.962;2022-07-05T13:57:04;2.73;;;1.87;;
1062;SDS011;520;50.932;6.962;2022-07-05T13:59:31;2.40;;;1.70;;
1062;SDS011;520;50.932;6.962;2022-07-05T14:01:57;7.20;;;2.03;;
1062;SDS011;520;50.932;6.962;2022-07-05T14:04:24;6.43;;;1.90;;
1062;SDS011;520;50.932;6.962;2022-07-05T14:06:53;3.53;;;1.97;;
1062;SDS011;520;50.932;6.962;2022-07-05T14:09:20;3.93;;;2.03;;
1062;SDS011;520;50.932;6.962;2022-07-05T14:11:53;3.57;;;2.67;;
1062;SDS011;520;50.932;6.962;2022-07-05T14:14:19;7.50;;;2.67;;
1062;SDS011;520;50.932;6.962;2022-07-05T14:16:46;2.30;;;2.10;;
1062;SDS011;520;50.932;6.962;2022-07-05T14:19:13;2.70;;;2.47;;
1062;SDS011;520;50.932;6.962;2022-07-05T14:21:39;3.80;;;2.40;;
1062;SDS011;520;50.932;6.962;2022-07-05T14:24:11;2.57;;;2.13;;
1062;SDS011;520;50.932;6.962;2022-07-05T14:26:37;2.87;;;1.83;;
1062;SDS011;520;50.932;6.962;2022-07-05T14:29:05;1.90;;;1.80;;
1062;SDS011;520;50.932;6.962;2022-07-05T14:31:33;3.93;;;2.07;;
1062;SDS011;520;50.932;6.962;2022-07-05T14:33:59;6.30;;;1.90;;
1062;SDS011;520;50.932;6.962;2022-07-05T14:36:26;2.33;;;2.13;;
1062;SDS011;520;50.932;6.962;2022-07-05T14:38:53;5.10;;;2.27;;
1062;SDS011;520;50.932;6.962;2022-07-05T14:41:20;2.80;;;1.90;;
1062;SDS011;520;50.932;6.962;2022-07-05T14:43:46;2.17;;;1.97;;
1062;SDS011;520;50.932;6.962;2022-07-05T14:46:13;2.53;;;2.00;;
1062;SDS011;520;50.932;6.962;2022-07-05T14:48:44;2.00;;;1.80;;
1062;SDS011;520;50.932;6.962;2022-07-05T14:51:12;3.10;;;1.90;;
1062;SDS011;520;50.932;6.962;2022-07-05T14:53:39;1.83;;;1.73;;
1062;SDS011;520;50.932;6.962;2022-07-05T14:56:08;4.30;;;2.67;;
1062;SDS011;520;50.932;6.962;2022-07-05T14:58:35;5.37;;;2.00;;
1062;SDS011;520;50.932;6.962;2022-07-05T15:01:02;3.03;;;1.70;;
1062;SDS011;520;50.932;6.962;2022-07-05T15:03:29;2.23;;;2.00;;
1062;SDS011;520;50.932;6.962;2022-07-05T15:05:55;3.83;;;2.30;;
1062;SDS011;520;50.932;6.962;2022-07-05T15:08:23;5.13;;;2.03;;
1062;SDS011;520;50.932;6.962;2022-07-05T15:10:57;1.80;;;1.70;;
1062;SDS011;520;50.932;6.962;2022-07-05T15:13:24;3.50;;;1.67;;
1062;SDS011;520;50.932;6.962;2022-07-05T15:15:54;3.27;;;1.73;;
1062;SDS011;520;50.932;6.962;2022-07-05T15:18:23;4.03;;;3.60;;
1062;SDS011;520;50.932;6.962;2022-07-05T15:20:50;2.10;;;2.00;;
1062;SDS011;520;50.932;6.962;2022-07-05T15:23:24;2.43;;;1.90;;
1062;SDS011;520;50.932;6.962;2022-07-05T15:25:54;4.03;;;3.63;;
1062;SDS011;520;50.932;6.962;2022-07-05T15:28:21;3.20;;;1.93;;
1062;SDS011;520;50.932;6.962;2022-07-05T15:30:48;1.63;;;1.53;;
1062;SDS011;520;50.932;6.962;2022-07-05T15:33:15;4.03;;;2.07;;
1062;SDS011;520;50.932;6.962;2022-07-05T15:35:42;3.17;;;1.63;;
1062;SDS011;520;50.932;6.962;2022-07-05T15:38:08;2.80;;;1.93;;
1062;SDS011;520;50.932;6.962;2022-07-05T15:40:35;3.03;;;2.53;;
1062;SDS011;520;50.932;6.962;2022-07-05T15:43:02;8.13;;;3.30;;
1062;SDS011;520;50.932;6.962;2022-07-05T15:45:29;2.93;;;2.20;;
1062;SDS011;520;50.932;6.962;2022-07-05T15:47:55;2.30;;;1.70;;
1062;SDS011;520;50.932;6.962;2022-07-05T15:50:22;3.73;;;2.00;;
1062;SDS011;520;50.932;6.962;2022-07-05T15:52:49;5.17;;;2.20;;
1062;SDS011;520;50.932;6.962;2022-07-05T15:55:15;2.17;;;1.80;;
1062;SDS011;520;50.932;6.962;2022-07-05T15:57:42;4.67;;;3.03;;
1062;SDS011;520;50.932;6.962;2022-07-05T16:00:09;2.93;;;2.20;;
1062;SDS011;520;50.932;6.962;2022-07-05T16:02:35;4.00;;;2.50;;
1062;SDS011;520;50.932;6.962;2022-07-05T16:05:02;5.53;;;2.20;;
1062;SDS011;520;50.932;6.962;2022-07-05T16:07:29;3.20;;;2.20;;
1062;SDS011;520;50.932;6.962;2022-07-05T16:09:56;2.17;;;2.07;;
1062;SDS011;520;50.932;6.962;2022-07-05T16:12:42;2.73;;;2.53;;